Time;durP1;ratioP1;P1;durP2;ratioP2;P2;SDS_P1;SDS_P2;PMS_P1;PMS_P2;Temp;Humidity;BMP_temperature;BMP_pressure;BME280_temperature;BME280_humidity;BME280_pressure;Samples;Min_cycle;Max_cycle;Signal;HPM_P1;HPM_P2
2023/10/14 00:01:11;;;;;;;;;;;19.40;99.90;;;;;;4956088;28;20050;-70
2023/10/14 00:03:41;;;;;;;138.07;130.68;;;19.40;99.90;;;;;;4964342;28;19925;-70
2023/10/14 00:06:07;;;;;;;139.93;132.45;;;19.40;99.90;;;;;;4967201;28;20043;-70
2023/10/14 00:08:34;;;;;;;137.90;130.18;;;19.40;99.90;;;;;;4956125;29;20034;-70
2023/10/14 00:11:04;;;;;;;149.35;141.15;;;19.40;99.90;;;;;;4955839;28;20046;-70
2023/10/14 00:13:32;;;;;;;127.80;120.88;;;19.40;99.90;;;;;;4954572;28;20039;-70
2023/10/14 00:16:01;;;;;;;125.80;119.40;;;19.30;99.90;;;;;;4955013;28;20050;-70
2023/10/14 00:18:27;;;;;;;158.00;149.93;;;19.20;99.90;;;;;;4964045;28;20496;-70
2023/10/14 00:20:54;;;;;;;176.85;168.00;;;18.90;99.90;;;;;;4968780;28;20039;-70
2023/10/14 00:23:30;;;;;;;167.65;159.00;;;18.40;99.90;;;;;;4954544;29;20031;-70
2023/10/14 00:25:57;;;;;;;160.75;152.75;;;18.10;99.90;;;;;;4954848;28;20035;-69
2023/10/14 00:28:24;;;;;;;147.45;139.90;;;17.90;99.90;;;;;;4956127;28;20036;-70
2023/10/14 00:30:55;;;;;;;154.57;146.90;;;17.60;99.90;;;;;;4961653;28;20038;-70
2023/10/14 00:33:21;;;;;;;;;;;17.50;99.90;;;;;;4964765;28;20054;-70
2023/10/14 00:35:53;;;;;;;129.95;123.38;;;17.40;99.90;;;;;;4960082;28;20264;-70
2023/10/14 00:38:19;;;;;;;125.18;119.07;;;17.40;99.90;;;;;;4974991;28;20062;-70
2023/10/14 00:40:47;;;;;;;117.30;111.65;;;17.30;99.90;;;;;;4968857;28;20042;-70
2023/10/14 00:43:13;;;;;;;117.93;112.25;;;17.20;99.90;;;;;;4955560;28;20523;-70
2023/10/14 00:45:43;;;;;;;135.82;128.93;;;17.10;99.90;;;;;;4954344;28;20039;-70
2023/10/14 00:48:14;;;;;;;130.18;123.70;;;17.20;99.90;;;;;;4954045;28;20043;-70
2023/10/14 00:50:41;;;;;;;129.23;122.80;;;17.30;99.90;;;;;;4955330;28;20039;-70
2023/10/14 00:53:08;;;;;;;153.68;145.80;;;17.40;99.90;;;;;;4954664;28;20046;-71
2023/10/14 00:55:52;;;;;;;125.00;118.88;;;17.40;99.90;;;;;;4954547;28;20035;-71
2023/10/14 00:58:23;;;;;;;126.40;120.07;;;17.30;99.90;;;;;;4955024;28;20035;-71
2023/10/14 01:00:58;;;;;;;118.90;112.78;;;17.30;99.90;;;;;;4959243;28;20034;-70
2023/10/14 01:03:36;;;;;;;139.32;132.00;;;17.30;99.90;;;;;;4974262;28;20031;-71
2023/10/14 01:09:02;;;;;;;144.73;137.48;;;17.50;99.90;;;;;;4951174;28;20058;-72
2023/10/14 01:11:35;;;;;;;125.78;119.43;;;17.50;99.90;;;;;;4937844;28;20054;-73
2023/10/14 01:14:05;;;;;;;117.40;111.68;;;17.40;99.90;;;;;;4968410;28;20389;-72
2023/10/14 01:16:37;;;;;;;144.85;137.60;;;17.20;99.90;;;;;;4954121;28;20047;-73
2023/10/14 01:19:04;;;;;;;108.38;102.75;;;17.10;99.90;;;;;;4954947;28;20402;-73
2023/10/14 01:21:31;;;;;;;128.05;121.57;;;16.90;99.90;;;;;;4954386;28;20511;-72
2023/10/14 01:24:00;;;;;;;117.53;111.28;;;16.90;99.90;;;;;;4956613;28;20051;-73
2023/10/14 01:26:27;;;;;;;102.05;96.80;;;16.80;99.90;;;;;;4972904;28;20038;-72
2023/10/14 01:29:06;;;;;;;92.78;87.78;;;16.80;99.90;;;;;;4973970;28;20388;-73
2023/10/14 01:32:10;;;;;;;98.13;92.95;;;16.80;99.90;;;;;;4970561;28;20042;-72
2023/10/14 01:34:42;;;;;;;87.30;82.57;;;16.70;99.90;;;;;;4967561;28;20504;-72
2023/10/14 01:37:19;;;;;;;88.25;83.47;;;16.50;99.90;;;;;;4973060;28;20035;-73
2023/10/14 01:39:48;;;;;;;88.00;82.80;;;16.40;99.90;;;;;;4954298;28;20279;-72
2023/10/14 01:42:19;;;;;;;92.50;87.22;;;16.30;99.90;;;;;;4958843;28;20400;-73
2023/10/14 01:44:45;;;;;;;90.60;85.43;;;16.40;99.90;;;;;;4973745;28;20054;-73
2023/10/14 01:47:11;;;;;;;88.32;83.30;;;16.50;99.90;;;;;;4956714;28;20086;-73
2023/10/14 01:49:37;;;;;;;95.35;89.60;;;16.60;99.90;;;;;;4954070;28;20400;-73
2023/10/14 01:52:08;;;;;;;96.88;91.70;;;16.70;99.90;;;;;;4954091;28;20075;-72
2023/10/14 01:54:34;;;;;;;95.97;90.90;;;16.80;99.90;;;;;;4954100;29;20376;-73
2023/10/14 01:57:00;;;;;;;113.40;107.13;;;16.80;99.90;;;;;;4958041;28;20472;-72
2023/10/14 01:59:27;;;;;;;97.30;92.15;;;16.80;99.90;;;;;;4964765;28;20036;-72
2023/10/14 02:01:57;;;;;;;98.00;92.15;;;16.90;99.90;;;;;;4953880;28;20039;-72
2023/10/14 02:04:24;;;;;;;95.03;89.93;;;16.90;99.90;;;;;;4953984;28;20047;-73
2023/10/14 02:07:13;;;;;;;100.13;94.07;;;16.90;99.90;;;;;;4957156;28;20477;-72
2023/10/14 02:09:36;;;;;;;96.05;90.88;;;16.80;99.90;;;;;;4957742;29;20464;-72
2023/10/14 02:12:02;;;;;;;100.15;94.22;;;16.90;99.90;;;;;;4957863;28;20039;-72
2023/10/14 02:14:28;;;;;;;102.25;96.03;;;17.00;99.90;;;;;;4958227;28;20035;-73
2023/10/14 02:16:54;;;;;;;108.38;102.35;;;16.90;99.90;;;;;;4971111;28;20047;-72
2023/10/14 02:19:21;;;;;;;102.80;96.93;;;16.90;99.90;;;;;;4964040;28;20491;-73
2023/10/14 02:21:48;;;;;;;107.63;101.28;;;17.00;99.90;;;;;;4970500;28;20039;-72
2023/10/14 02:24:18;;;;;;;104.70;98.25;;;16.90;99.90;;;;;;4975201;28;20050;-72
2023/10/14 02:26:44;;;;;;;105.13;98.75;;;16.90;99.90;;;;;;4964160;28;20058;-71
2023/10/14 02:29:10;;;;;;;101.93;95.78;;;16.90;99.90;;;;;;4957541;29;20035;-71
2023/10/14 02:31:36;;;;;;;97.90;92.05;;;16.90;99.90;;;;;;4970581;28;20046;-71
2023/10/14 02:34:06;;;;;;;93.13;87.57;;;16.80;99.90;;;;;;4975205;28;20038;-70
2023/10/14 02:36:40;;;;;;;86.87;81.30;;;16.80;99.90;;;;;;4965564;28;20050;-71
2023/10/14 02:39:14;;;;;;;91.35;86.07;;;16.80;99.90;;;;;;4972549;28;20399;-71
2023/10/14 02:41:43;;;;;;;85.03;79.47;;;16.70;99.90;;;;;;4964397;28;20024;-70
2023/10/14 02:46:46;;;;;;;80.03;74.60;;;16.50;99.90;;;;;;4962089;28;20070;-71
2023/10/14 02:49:14;;;;;;;77.22;72.30;;;16.60;99.90;;;;;;4957123;28;20067;-71
2023/10/14 02:51:44;;;;;;;60.03;55.92;;;16.50;99.90;;;;;;4956733;28;20412;-71
2023/10/14 02:54:15;;;;;;;75.70;70.40;;;16.30;99.90;;;;;;4957382;29;20057;-71
2023/10/14 02:57:00;;;;;;;63.15;58.67;;;16.20;99.90;;;;;;4956928;28;20043;-70
2023/10/14 02:59:43;;;;;;;77.88;73.07;;;16.20;99.90;;;;;;4955807;28;20063;-70
2023/10/14 03:07:23;;;;;;;65.30;61.20;;;15.80;99.90;;;;;;4961810;28;20392;-70
2023/10/14 03:09:49;;;;;;;70.18;65.63;;;15.50;99.90;;;;;;4957268;29;20027;-70
2023/10/14 03:12:18;;;;;;;72.13;67.60;;;15.30;99.90;;;;;;4956642;28;20027;-70
2023/10/14 03:14:48;;;;;;;72.53;67.85;;;15.30;99.90;;;;;;4961628;28;20044;-70
2023/10/14 03:17:40;;;;;;;76.80;72.20;;;15.40;99.90;;;;;;4956907;28;20043;-70
2023/10/14 03:22:57;;;;;;;68.60;64.18;;;15.60;99.90;;;;;;4962517;28;20046;-71
2023/10/14 03:25:23;;;;;;;65.82;61.50;;;15.70;99.90;;;;;;4956422;28;20058;-71
2023/10/14 03:27:58;;;;;;;65.50;60.95;;;15.70;99.90;;;;;;4955492;29;20035;-71
2023/10/14 03:30:26;;;;;;;58.22;53.75;;;15.80;99.90;;;;;;4957990;28;20070;-70
2023/10/14 03:32:52;;;;;;;60.08;55.88;;;16.00;99.90;;;;;;4956508;28;20027;-70
2023/10/14 03:35:23;;;;;;;66.18;61.33;;;16.10;99.90;;;;;;4955887;28;20465;-71
2023/10/14 03:37:53;;;;;;;;;;;16.10;99.90;;;;;;4956768;28;20027;-70
2023/10/14 03:43:08;;;;;;;50.55;46.88;;;16.10;99.90;;;;;;4982187;28;20587;-71
2023/10/14 03:45:53;;;;;;;54.63;50.85;;;16.10;99.90;;;;;;4971871;28;20047;-71
2023/10/14 03:48:27;;;;;;;51.92;47.97;;;16.20;99.90;;;;;;4955794;28;20436;-70
2023/10/14 03:51:02;;;;;;;58.30;54.25;;;16.20;99.90;;;;;;4955892;28;20388;-70
2023/10/14 03:53:32;;;;;;;57.95;53.97;;;16.20;99.90;;;;;;4956126;28;20468;-70
2023/10/14 03:56:03;;;;;;;58.88;54.92;;;16.30;99.90;;;;;;4962258;28;20046;-70
2023/10/14 03:58:30;;;;;;;70.97;66.03;;;16.40;99.90;;;;;;4974621;28;20373;-70
2023/10/14 04:00:59;;;;;;;75.35;70.30;;;16.50;99.90;;;;;;4968556;28;20051;-70
2023/10/14 04:03:40;;;;;;;82.35;77.28;;;16.50;99.90;;;;;;4955932;29;20034;-70
2023/10/14 04:06:09;;;;;;;51.28;47.78;;;16.50;99.90;;;;;;4955570;28;20519;-72
2023/10/14 04:08:47;;;;;;;71.53;66.72;;;16.60;99.90;;;;;;4954803;29;20039;-73
2023/10/14 04:11:25;;;;;;;48.85;45.15;;;16.60;99.90;;;;;;4956233;28;20065;-73
2023/10/14 04:14:04;;;;;;;83.57;78.18;;;16.60;99.90;;;;;;4955815;28;20039;-73
2023/10/14 04:22:25;;;;;;;63.15;58.85;;;16.40;99.90;;;;;;4953416;28;20536;-73
2023/10/14 04:24:53;;;;;;;67.28;62.85;;;16.50;99.90;;;;;;4950064;28;20066;-72
2023/10/14 04:30:10;;;;;;;64.40;60.10;;;16.50;99.90;;;;;;4957357;28;20027;-73
2023/10/14 04:32:46;;;;;;;45.70;42.60;;;16.60;99.90;;;;;;4951079;29;20505;-72
2023/10/14 04:35:12;;;;;;;59.33;55.05;;;16.60;99.90;;;;;;4952609;29;20046;-73
2023/10/14 04:37:51;;;;;;;58.10;54.25;;;16.60;99.90;;;;;;4952793;29;20042;-73
2023/10/14 04:45:52;;;;;;;48.53;45.17;;;16.30;99.90;;;;;;4956615;28;20151;-73
2023/10/14 04:48:27;;;;;;;48.08;44.97;;;16.30;99.90;;;;;;4952416;29;20050;-73
2023/10/14 04:51:00;;;;;;;46.38;42.65;;;16.30;99.90;;;;;;4945870;29;20136;-73
2023/10/14 04:53:31;;;;;;;56.75;52.58;;;16.30;99.90;;;;;;4952687;29;20439;-72
2023/10/14 04:56:01;;;;;;;55.28;51.60;;;16.30;99.90;;;;;;4953361;28;20046;-71
2023/10/14 04:58:27;;;;;;;55.83;51.78;;;16.30;99.90;;;;;;4955908;28;20043;-72
2023/10/14 05:01:00;;;;;;;53.33;49.30;;;16.30;99.90;;;;;;4959980;28;20497;-72
2023/10/14 05:03:29;;;;;;;56.33;52.45;;;16.30;99.90;;;;;;4973916;28;20061;-72
2023/10/14 05:06:14;;;;;;;46.20;42.53;;;16.30;99.90;;;;;;4968100;28;20055;-73
2023/10/14 05:08:44;;;;;;;58.58;54.45;;;16.20;99.90;;;;;;4954673;28;20039;-73
2023/10/14 05:11:13;;;;;;;58.78;54.80;;;16.20;99.90;;;;;;4954578;28;20038;-73
2023/10/14 05:13:42;;;;;;;50.15;46.47;;;16.30;99.90;;;;;;4955165;28;20400;-73
2023/10/14 05:16:16;;;;;;;50.13;46.22;;;16.20;99.90;;;;;;4958338;28;20058;-73
2023/10/14 05:19:05;;;;;;;52.35;48.83;;;16.30;99.90;;;;;;4971956;28;20047;-72
2023/10/14 05:21:43;;;;;;;69.47;64.97;;;16.20;99.90;;;;;;4961656;28;20050;-73
2023/10/14 05:24:10;;;;;;;53.45;49.50;;;16.30;99.90;;;;;;4954564;28;20047;-73
2023/10/14 05:26:44;;;;;;;65.50;61.25;;;16.30;99.90;;;;;;4954296;28;20054;-72
2023/10/14 05:29:22;;;;;;;59.47;55.33;;;16.20;99.90;;;;;;4973436;28;20388;-72
2023/10/14 05:31:48;;;;;;;54.08;50.38;;;16.10;99.90;;;;;;4972661;28;20399;-73
2023/10/14 05:34:26;;;;;;;57.25;53.30;;;16.00;99.90;;;;;;4972138;28;20396;-70
2023/10/14 05:36:55;;;;;;;71.85;66.57;;;16.00;99.90;;;;;;4973179;28;20054;-70
2023/10/14 05:39:22;;;;;;;88.35;82.90;;;16.00;99.90;;;;;;4973374;28;20069;-71
2023/10/14 05:41:48;;;;;;;61.53;57.58;;;16.10;99.90;;;;;;4961879;28;20056;-70
2023/10/14 05:44:14;;;;;;;55.25;51.33;;;16.10;99.90;;;;;;4973608;28;20030;-70
2023/10/14 05:46:44;;;;;;;81.32;76.40;;;16.10;99.90;;;;;;4972307;28;20049;-70
2023/10/14 05:49:10;;;;;;;65.90;61.13;;;16.10;99.90;;;;;;4973596;28;20022;-70
2023/10/14 05:51:36;;;;;;;67.28;62.58;;;16.10;99.90;;;;;;4961672;28;20039;-69
2023/10/14 05:54:04;;;;;;;59.67;55.45;;;16.10;99.90;;;;;;4954249;28;20042;-70
2023/10/14 05:56:30;;;;;;;76.57;71.25;;;16.00;99.90;;;;;;4953506;28;20058;-70
2023/10/14 05:58:57;;;;;;;79.13;74.13;;;16.10;99.90;;;;;;4954213;29;20038;-70
2023/10/14 06:01:24;;;;;;;86.95;81.75;;;16.10;99.90;;;;;;4957912;28;20039;-70
2023/10/14 06:03:50;;;;;;;85.80;80.40;;;16.10;99.90;;;;;;4973667;28;20065;-70
2023/10/14 06:06:16;;;;;;;84.65;79.45;;;16.20;99.90;;;;;;4955358;28;20070;-70
2023/10/14 06:08:46;;;;;;;74.82;70.07;;;16.20;99.90;;;;;;4954434;28;20027;-70
2023/10/14 06:11:12;;;;;;;78.85;73.35;;;16.20;99.90;;;;;;4954206;29;20469;-69
2023/10/14 06:13:39;;;;;;;71.10;66.40;;;16.20;99.90;;;;;;4952881;29;20754;-70
2023/10/14 06:16:11;;;;;;;65.20;60.78;;;16.20;99.90;;;;;;4961433;28;20047;-69
2023/10/14 06:18:38;;;;;;;91.50;86.15;;;16.30;99.90;;;;;;4973469;28;20050;-69
2023/10/14 06:21:10;;;;;;;90.68;84.80;;;16.30;99.90;;;;;;4968323;28;20475;-69
2023/10/14 06:23:39;;;;;;;80.13;75.35;;;16.20;99.90;;;;;;4970307;28;20050;-69
2023/10/14 06:26:06;;;;;;;72.30;67.57;;;16.20;99.90;;;;;;4967510;28;20450;-69
2023/10/14 06:28:32;;;;;;;66.68;62.47;;;16.30;99.90;;;;;;4963479;28;20058;-69
2023/10/14 06:31:03;;;;;;;71.60;66.95;;;16.30;99.90;;;;;;4969460;28;20043;-69
2023/10/14 06:33:29;;;;;;;;;;;16.30;99.90;;;;;;4964312;28;20050;-69
2023/10/14 06:36:03;;;;;;;83.80;78.45;;;16.30;99.90;;;;;;4956822;28;19918;-69
2023/10/14 06:38:29;;;;;;;75.65;70.72;;;16.30;99.90;;;;;;4953894;28;20039;-75
2023/10/14 06:41:01;;;;;;;84.28;79.05;;;16.20;99.90;;;;;;4959661;28;20039;-75
2023/10/14 06:43:27;;;;;;;70.43;65.85;;;16.20;99.90;;;;;;4967263;28;20463;-75
2023/10/14 06:45:57;;;;;;;73.28;68.78;;;16.20;99.90;;;;;;4965438;28;20046;-75
2023/10/14 06:48:23;;;;;;;104.57;98.15;;;16.10;99.90;;;;;;4973373;28;20057;-75
2023/10/14 06:50:49;;;;;;;94.22;87.90;;;16.20;99.90;;;;;;4972555;28;20060;-75
2023/10/14 06:53:18;;;;;;;85.20;79.90;;;16.20;99.90;;;;;;4976192;28;20058;-75
2023/10/14 06:55:44;;;;;;;79.93;73.53;;;16.20;99.90;;;;;;4975867;28;20050;-75
2023/10/14 06:58:11;;;;;;;71.75;66.22;;;16.20;99.90;;;;;;4976378;28;20038;-75
2023/10/14 07:00:38;;;;;;;86.53;80.65;;;16.30;99.90;;;;;;4967624;28;20042;-75
2023/10/14 07:03:15;;;;;;;92.97;86.07;;;16.30;99.90;;;;;;4963408;28;20030;-76
2023/10/14 07:05:56;;;;;;;90.97;85.07;;;16.30;99.90;;;;;;4975546;28;20061;-75
2023/10/14 07:08:24;;;;;;;93.90;87.90;;;16.30;99.90;;;;;;4973324;28;20051;-75
2023/10/14 07:10:50;;;;;;;86.68;81.28;;;16.30;99.90;;;;;;4974170;28;20035;-73
2023/10/14 07:13:17;;;;;;;81.35;75.78;;;16.20;99.90;;;;;;4971865;28;20019;-73
2023/10/14 07:15:44;;;;;;;80.45;75.63;;;16.20;99.90;;;;;;4966850;28;20043;-73
2023/10/14 07:18:13;;;;;;;72.05;67.07;;;16.20;99.90;;;;;;4975136;28;20043;-74
2023/10/14 07:20:39;;;;;;;71.25;66.70;;;16.20;99.90;;;;;;4975874;28;20034;-74
2023/10/14 07:23:09;;;;;;;70.70;65.70;;;16.20;99.90;;;;;;4975934;28;20486;-74
2023/10/14 07:25:37;;;;;;;65.78;61.38;;;16.20;99.90;;;;;;4975447;28;20107;-73
2023/10/14 07:28:07;;;;;;;67.80;63.13;;;16.20;99.90;;;;;;4958252;28;20039;-73
2023/10/14 07:30:36;;;;;;;82.13;76.53;;;16.10;99.90;;;;;;4968799;28;20038;-73
2023/10/14 07:33:06;;;;;;;83.65;78.53;;;16.20;99.90;;;;;;4963922;28;20043;-73
2023/10/14 07:35:32;;;;;;;68.65;64.28;;;16.20;99.90;;;;;;4973886;28;20115;-73
2023/10/14 07:37:58;;;;;;;64.80;60.05;;;16.20;99.90;;;;;;4960220;28;20067;-72
2023/10/14 07:40:26;;;;;;;78.45;73.70;;;16.10;99.90;;;;;;4960709;28;20473;-73
2023/10/14 07:42:53;;;;;;;76.78;71.95;;;16.20;99.90;;;;;;4956149;28;20040;-73
2023/10/14 07:45:28;;;;;;;71.40;66.30;;;16.20;99.90;;;;;;4956020;28;20052;-70
2023/10/14 07:47:56;;;;;;;64.32;59.97;;;16.30;99.90;;;;;;4966961;28;20369;-70
2023/10/14 07:50:23;;;;;;;53.90;50.22;;;16.30;99.90;;;;;;4973134;28;20054;-71
2023/10/14 07:52:49;;;;;;;57.60;53.78;;;16.30;99.90;;;;;;4955894;28;20043;-71
2023/10/14 07:55:15;;;;;;;49.17;45.60;;;16.40;99.90;;;;;;4957691;28;20043;-72
2023/10/14 07:57:42;;;;;;;57.58;53.58;;;16.40;99.90;;;;;;4954630;29;20046;-71
2023/10/14 08:00:12;;;;;;;57.92;53.63;;;16.50;99.90;;;;;;4955405;28;20046;-71
2023/10/14 08:02:39;;;;;;;55.53;51.58;;;16.50;99.90;;;;;;4955428;28;20082;-71
2023/10/14 08:05:07;;;;;;;61.08;57.40;;;16.40;99.90;;;;;;4966182;28;20050;-71
2023/10/14 08:07:40;;;;;;;56.38;52.40;;;16.50;99.90;;;;;;4955753;28;20051;-69
2023/10/14 08:10:19;;;;;;;55.50;51.55;;;16.50;99.90;;;;;;4971350;28;20488;-69
2023/10/14 08:12:46;;;;;;;54.92;51.03;;;16.50;99.90;;;;;;4966246;28;20045;-71
2023/10/14 08:15:17;;;;;;;57.10;52.15;;;16.50;99.90;;;;;;4969532;28;20046;-69
2023/10/14 08:17:43;;;;;;;;;;;16.70;99.90;;;;;;4974424;28;20051;-68
2023/10/14 08:20:13;;;;;;;43.90;40.70;;;16.70;99.90;;;;;;4971750;28;19933;-68
2023/10/14 08:22:45;;;;;;;45.72;42.42;;;16.80;99.90;;;;;;4967918;28;20038;-68
2023/10/14 08:25:12;;;;;;;62.22;57.78;;;16.70;99.90;;;;;;4955215;28;20058;-68
2023/10/14 08:27:43;;;;;;;45.75;42.60;;;16.70;99.90;;;;;;4963734;28;20452;-68
2023/10/14 08:30:12;;;;;;;48.20;44.88;;;16.70;99.90;;;;;;4973798;28;20046;-68
2023/10/14 08:32:42;;;;;;;51.33;47.42;;;16.60;99.90;;;;;;4964305;28;20043;-68
2023/10/14 08:35:15;;;;;;;49.33;45.83;;;16.60;99.90;;;;;;4967858;28;20042;-68
2023/10/14 08:37:49;;;;;;;65.28;61.45;;;16.70;99.90;;;;;;4967922;28;20027;-68
2023/10/14 08:40:19;;;;;;;41.20;38.13;;;16.70;99.90;;;;;;4956281;28;20047;-68
2023/10/14 08:43:07;;;;;;;44.05;41.08;;;16.70;99.90;;;;;;4974491;28;20019;-68
2023/10/14 08:45:36;;;;;;;57.95;53.88;;;16.70;99.90;;;;;;4973580;28;20035;-68
2023/10/14 08:48:02;;;;;;;54.53;50.72;;;16.80;99.90;;;;;;4973208;28;20051;-68
2023/10/14 08:50:29;;;;;;;60.75;56.78;;;16.70;99.90;;;;;;4974082;28;20019;-68
2023/10/14 08:52:56;;;;;;;57.05;53.25;;;16.70;99.90;;;;;;4974789;28;20464;-69
2023/10/14 08:55:22;;;;;;;76.35;71.93;;;16.60;99.90;;;;;;4971573;28;20031;-68
2023/10/14 08:57:49;;;;;;;69.53;65.22;;;16.70;99.90;;;;;;4974555;28;20045;-68
2023/10/14 09:00:20;;;;;;;56.45;52.75;;;16.70;99.90;;;;;;4972919;28;20100;-69
2023/10/14 09:02:50;;;;;;;58.08;54.33;;;16.80;99.90;;;;;;4955751;28;20035;-68
2023/10/14 09:05:17;;;;;;;49.97;46.67;;;16.80;99.90;;;;;;4964668;28;20031;-68
2023/10/14 09:07:48;;;;;;;46.80;43.40;;;16.90;99.90;;;;;;4964579;28;20043;-68
2023/10/14 09:10:18;;;;;;;43.85;41.00;;;16.80;99.90;;;;;;4969523;28;20496;-68
2023/10/14 09:12:55;;;;;;;47.22;44.13;;;16.90;99.90;;;;;;4968409;28;20047;-68
2023/10/14 09:15:22;;;;;;;53.80;50.33;;;16.90;99.90;;;;;;4972426;28;20050;-69
2023/10/14 09:17:48;;;;;;;54.70;50.97;;;17.00;99.90;;;;;;4972924;28;20042;-69
2023/10/14 09:20:35;;;;;;;51.72;48.28;;;17.00;99.90;;;;;;4965327;28;20416;-70
2023/10/14 09:23:29;;;;;;;57.67;53.78;;;17.10;99.90;;;;;;4972897;28;20058;-70
2023/10/14 09:26:04;;;;;;;55.58;52.03;;;17.10;99.90;;;;;;4971103;28;20065;-70
2023/10/14 09:28:34;;;;;;;61.55;56.90;;;17.10;99.90;;;;;;4973096;28;20037;-70
2023/10/14 09:31:02;;;;;;;60.53;56.75;;;17.10;99.90;;;;;;4965504;28;20054;-70
2023/10/14 09:33:31;;;;;;;53.25;49.45;;;17.20;99.90;;;;;;4967007;28;20027;-69
2023/10/14 09:36:05;;;;;;;56.85;52.92;;;17.20;99.90;;;;;;4959533;28;20035;-69
2023/10/14 09:38:32;;;;;;;59.80;56.17;;;17.20;99.90;;;;;;4968482;28;20055;-70
2023/10/14 09:41:02;;;;;;;55.97;52.25;;;17.20;99.90;;;;;;4966273;28;20039;-70
2023/10/14 09:43:29;;;;;;;68.57;64.13;;;17.30;99.90;;;;;;4959866;28;20061;-71
2023/10/14 09:45:56;;;;;;;61.08;56.85;;;17.20;99.90;;;;;;4971657;28;20628;-70
2023/10/14 09:48:31;;;;;;;57.75;53.95;;;17.10;99.90;;;;;;4965488;28;20038;-70
2023/10/14 09:51:00;;;;;;;58.50;54.78;;;17.20;99.90;;;;;;4960622;28;20054;-70
2023/10/14 09:53:27;;;;;;;58.53;54.60;;;17.30;99.90;;;;;;4970979;28;20483;-70
2023/10/14 09:55:57;;;;;;;52.72;49.17;;;17.20;99.90;;;;;;4965822;28;20036;-70
2023/10/14 09:58:26;;;;;;;54.58;51.05;;;17.10;99.90;;;;;;4969479;28;20039;-71
2023/10/14 10:00:52;;;;;;;51.53;47.83;;;17.10;99.90;;;;;;4966658;28;20046;-70
2023/10/14 10:03:19;;;;;;;53.03;49.17;;;17.20;99.90;;;;;;4954017;28;20488;-70
2023/10/14 10:06:05;;;;;;;47.38;44.13;;;17.20;99.90;;;;;;4956386;28;20047;-70
2023/10/14 10:08:43;;;;;;;48.05;44.47;;;17.20;99.90;;;;;;4952841;29;20043;-70
2023/10/14 10:11:10;;;;;;;55.50;51.97;;;17.30;99.90;;;;;;4960373;28;20026;-70
2023/10/14 10:13:39;;;;;;;49.83;46.67;;;17.30;99.90;;;;;;4971146;28;20042;-70
2023/10/14 10:16:05;;;;;;;52.20;48.83;;;17.40;99.90;;;;;;4972359;28;20389;-70
2023/10/14 10:19:01;;;;;;;61.58;57.65;;;17.40;99.90;;;;;;4973275;28;20027;-70
2023/10/14 10:21:31;;;;;;;59.55;55.83;;;17.50;99.90;;;;;;4957699;28;20058;-69
2023/10/14 10:24:09;;;;;;;53.38;49.55;;;17.50;99.90;;;;;;4953987;29;20028;-69
2023/10/14 10:27:03;;;;;;;58.20;54.67;;;17.60;99.90;;;;;;4953392;28;20059;-69
2023/10/14 10:29:33;;;;;;;62.58;58.38;;;17.70;99.90;;;;;;4957183;28;20047;-69
2023/10/14 10:32:10;;;;;;;75.90;71.25;;;17.70;99.90;;;;;;4967284;28;20039;-69
2023/10/14 10:35:04;;;;;;;101.38;95.78;;;17.70;99.90;;;;;;4975533;28;20043;-69
2023/10/14 10:37:35;;;;;;;140.15;132.70;;;17.70;99.90;;;;;;4963866;28;20043;-69
2023/10/14 10:40:05;;;;;;;135.02;127.82;;;17.70;99.90;;;;;;4975445;28;20031;-69
2023/10/14 10:42:31;;;;;;;115.05;108.63;;;17.70;99.90;;;;;;4973808;28;20360;-69
2023/10/14 10:44:58;;;;;;;153.23;145.25;;;17.70;99.90;;;;;;4959593;28;20049;-68
2023/10/14 10:47:24;;;;;;;189.88;180.20;;;17.90;99.90;;;;;;4972967;28;20091;-69
2023/10/14 10:49:59;;;;;;;141.63;133.75;;;18.00;99.90;;;;;;4973224;28;20031;-69
2023/10/14 10:52:28;;;;;;;256.90;244.25;;;18.10;99.90;;;;;;4975422;28;20047;-69
2023/10/14 10:54:56;;;;;;;334.70;318.20;;;18.00;99.90;;;;;;4956826;28;20036;-69
2023/10/14 10:57:22;;;;;;;343.77;326.45;;;18.00;99.90;;;;;;4964058;28;20051;-68
2023/10/14 10:59:48;;;;;;;394.63;375.10;;;17.90;99.90;;;;;;4960158;28;20377;-69
2023/10/14 11:02:18;;;;;;;483.45;459.67;;;18.00;99.90;;;;;;4957892;28;20031;-68
2023/10/14 11:04:45;;;;;;;473.63;450.63;;;18.10;99.90;;;;;;4954602;29;20050;-68
2023/10/14 11:07:12;;;;;;;359.67;342.50;;;18.10;99.90;;;;;;4967144;28;20400;-68
2023/10/14 11:09:41;;;;;;;251.30;239.35;;;18.10;99.90;;;;;;4957119;28;20027;-69
2023/10/14 11:12:11;;;;;;;240.93;228.77;;;18.00;99.90;;;;;;4970507;28;20038;-73
2023/10/14 11:14:38;;;;;;;194.18;183.77;;;18.10;99.90;;;;;;4973208;28;20042;-74
2023/10/14 11:17:04;;;;;;;220.98;209.90;;;18.10;99.90;;;;;;4958333;28;20408;-73
2023/10/14 11:19:33;;;;;;;268.85;255.50;;;18.20;99.90;;;;;;4958628;28;20406;-74
2023/10/14 11:22:01;;;;;;;251.90;239.63;;;18.20;99.90;;;;;;4960390;28;20039;-73
2023/10/14 11:24:30;;;;;;;271.45;257.95;;;18.20;99.90;;;;;;4972312;28;20468;-66
2023/10/14 11:26:57;;;;;;;177.18;168.23;;;18.30;99.90;;;;;;4961405;28;20484;-71
2023/10/14 11:29:24;;;;;;;216.82;205.88;;;18.30;99.90;;;;;;4954567;29;20050;-69
2023/10/14 11:31:59;;;;;;;172.15;163.40;;;18.30;99.90;;;;;;4968792;28;20030;-70
2023/10/14 11:34:35;;;;;;;189.75;179.73;;;18.20;99.90;;;;;;4975075;28;20043;-70
2023/10/14 11:37:01;;;;;;;242.07;230.15;;;18.10;99.90;;;;;;4964557;28;20031;-69
2023/10/14 11:39:28;;;;;;;197.15;187.25;;;18.20;99.90;;;;;;4973989;28;20100;-69
2023/10/14 11:41:54;;;;;;;186.07;176.32;;;18.10;99.90;;;;;;4974800;28;20038;-70
2023/10/14 11:44:20;;;;;;;1999.90;999.90;;;18.20;99.90;;;;;;4975317;28;20050;-70
2023/10/14 11:46:46;;;;;;;202.98;192.80;;;18.00;99.90;;;;;;4973337;28;20046;-69
2023/10/14 11:49:13;;;;;;;1546.57;794.20;;;17.90;99.90;;;;;;4974314;28;20046;-70
2023/10/14 11:51:43;;;;;;;184.30;174.82;;;17.80;99.90;;;;;;4963131;28;20051;-69
2023/10/14 11:54:12;;;;;;;306.35;290.88;;;17.80;99.90;;;;;;4955825;28;20484;-70
2023/10/14 11:56:41;;;;;;;1999.90;999.90;;;18.00;99.90;;;;;;4955393;28;20032;-67
2023/10/14 11:59:08;;;;;;;281.00;266.95;;;17.90;99.90;;;;;;4955895;29;20032;-70
2023/10/14 12:01:34;;;;;;;211.25;200.82;;;18.00;99.90;;;;;;4957420;28;20401;-70
2023/10/14 12:04:01;;;;;;;1999.90;999.90;;;18.10;99.90;;;;;;4971567;28;20042;-70
2023/10/14 12:06:30;;;;;;;1999.90;999.90;;;18.10;99.90;;;;;;4964431;28;20416;-69
2023/10/14 12:08:56;;;;;;;1999.90;999.90;;;18.10;99.90;;;;;;4955462;29;20031;-70
2023/10/14 12:11:22;;;;;;;1999.90;999.90;;;18.20;99.90;;;;;;4955765;28;20027;-69
2023/10/14 12:13:50;;;;;;;1999.90;999.90;;;18.20;99.90;;;;;;4969984;28;20522;-70
2023/10/14 12:16:17;;;;;;;1999.90;999.90;;;18.20;99.90;;;;;;4971331;28;20403;-70
2023/10/14 12:18:45;;;;;;;1999.90;999.90;;;18.40;99.90;;;;;;4971995;28;20035;-69
2023/10/14 12:21:11;;;;;;;1999.90;999.90;;;18.50;99.90;;;;;;4971649;28;20054;-70
2023/10/14 12:23:38;;;;;;;1999.90;999.90;;;18.60;99.90;;;;;;4970124;28;20039;-69
2023/10/14 12:26:04;;;;;;;1999.90;999.90;;;18.70;99.90;;;;;;4964320;28;20039;-70
2023/10/14 12:28:30;;;;;;;1999.90;999.90;;;18.80;99.90;;;;;;4971956;28;20046;-69
2023/10/14 12:31:06;;;;;;;1999.90;999.90;;;18.80;99.90;;;;;;4964753;28;20031;-69
2023/10/14 12:33:35;;;;;;;1999.90;999.90;;;18.90;99.90;;;;;;4954636;28;20043;-70
2023/10/14 12:36:22;;;;;;;1999.90;999.90;;;18.90;99.90;;;;;;4954933;28;20042;-69
2023/10/14 12:38:48;;;;;;;1999.90;999.90;;;19.00;99.90;;;;;;4966448;28;20047;-69
2023/10/14 12:41:21;;;;;;;1999.90;999.90;;;18.90;99.40;;;;;;4954797;28;20019;-70
2023/10/14 12:43:55;;;;;;;1999.90;999.90;;;19.00;99.60;;;;;;4958707;28;20062;-70
2023/10/14 12:46:22;;;;;;;1999.90;999.90;;;18.90;98.60;;;;;;4963329;28;20027;-70
2023/10/14 12:48:50;;;;;;;1999.90;999.90;;;18.80;99.20;;;;;;4973672;28;20042;-70
2023/10/14 12:51:18;;;;;;;1999.90;999.90;;;18.70;98.90;;;;;;4964407;28;20046;-70
2023/10/14 12:53:48;;;;;;;1999.90;999.90;;;18.70;99.10;;;;;;4954989;28;20507;-70
2023/10/14 12:56:20;;;;;;;1999.90;999.90;;;18.70;99.20;;;;;;4952878;28;20035;-70
2023/10/14 12:58:48;;;;;;;1999.90;999.90;;;18.50;98.60;;;;;;4968661;28;20035;-69
2023/10/14 13:01:17;;;;;;;1999.90;999.90;;;18.60;99.90;;;;;;4961880;28;20031;-69
2023/10/14 13:03:46;;;;;;;1999.90;999.90;;;18.70;99.90;;;;;;4973727;28;20035;-70
2023/10/14 13:06:13;;;;;;;1999.90;999.90;;;18.70;99.80;;;;;;4964493;28;20035;-70